createdAt,value
2022-10-20T00:02:09.718Z,100.00
2022-10-20T00:04:38.536Z,99.97
2022-10-20T00:07:07.292Z,99.34
2022-10-20T00:09:35.983Z,99.95
2022-10-20T00:12:06.642Z,99.97
2022-10-20T00:14:35.332Z,100.00
2022-10-20T00:17:05.435Z,100.00
2022-10-20T00:19:34.182Z,100.00
2022-10-20T00:22:02.939Z,100.00
2022-10-20T00:24:31.626Z,99.99
2022-10-20T00:27:00.299Z,99.45
2022-10-20T00:29:30.312Z,100.00
2022-10-20T00:31:58.965Z,99.82
2022-10-20T00:34:27.660Z,100.00
2022-10-20T00:36:56.580Z,100.00
2022-10-20T00:39:25.241Z,100.00
2022-10-20T00:41:53.848Z,100.00
2022-10-20T00:44:49.902Z,100.00
2022-10-20T00:47:21.599Z,100.00
2022-10-20T00:49:50.901Z,100.00
2022-10-20T00:52:21.875Z,100.00
2022-10-20T00:54:51.011Z,100.00
2022-10-20T00:57:19.705Z,100.00
2022-10-20T00:59:49.761Z,100.00
2022-10-20T01:02:18.470Z,100.00
2022-10-20T01:04:47.119Z,100.00
2022-10-20T01:07:15.752Z,100.00
2022-10-20T01:09:44.483Z,100.00
2022-10-20T01:12:22.387Z,100.00
2022-10-20T01:14:57.003Z,100.00
2022-10-20T01:17:30.310Z,100.00
2022-10-20T01:20:30.825Z,99.40
2022-10-20T01:23:12.184Z,99.75
2022-10-20T01:25:51.222Z,99.73
2022-10-20T01:28:24.542Z,99.41
2022-10-20T01:30:58.700Z,99.59
2022-10-20T01:33:33.403Z,99.85
2022-10-20T01:36:05.328Z,100.00
2022-10-20T01:38:38.597Z,99.96
2022-10-20T01:41:11.216Z,100.00
2022-10-20T01:43:42.230Z,100.00
2022-10-20T01:46:11.882Z,100.00
2022-10-20T01:48:41.132Z,99.83
2022-10-20T01:51:10.332Z,100.00
2022-10-20T01:53:39.872Z,99.72
2022-10-20T01:56:15.883Z,99.72
2022-10-20T01:59:12.677Z,99.56
2022-10-20T02:01:55.063Z,99.70
2022-10-20T02:04:29.670Z,99.47
2022-10-20T02:07:00.320Z,99.15
2022-10-20T02:09:34.038Z,99.51
2022-10-20T02:12:05.814Z,99.61
2022-10-20T02:14:36.881Z,98.93
2022-10-20T02:17:08.611Z,99.15
2022-10-20T02:19:39.621Z,99.41
2022-10-20T02:22:09.551Z,99.35
2022-10-20T02:24:40.643Z,99.00
2022-10-20T02:27:12.334Z,99.24
2022-10-20T02:29:44.400Z,98.41
2022-10-20T02:32:13.857Z,99.08
2022-10-20T02:34:42.905Z,99.13
2022-10-20T02:37:11.546Z,98.57
2022-10-20T02:39:40.246Z,98.31
2022-10-20T02:42:08.834Z,97.50
2022-10-20T02:44:37.449Z,96.37
2022-10-20T02:47:07.426Z,96.22
2022-10-20T02:49:36.066Z,96.21
2022-10-20T02:52:04.776Z,97.43
2022-10-20T02:54:33.851Z,96.48
2022-10-20T02:57:02.470Z,95.87
2022-10-20T02:59:31.105Z,95.66
2022-10-20T03:01:59.748Z,96.58
2022-10-20T03:04:29.896Z,97.74
2022-10-20T03:06:58.477Z,98.01
2022-10-20T03:09:27.524Z,97.78
2022-10-20T03:11:57.258Z,96.83
2022-10-20T03:14:25.956Z,96.02
2022-10-20T03:16:54.623Z,96.34
2022-10-20T03:19:23.209Z,96.50
2022-10-20T03:21:53.141Z,96.76
2022-10-20T03:24:21.756Z,96.42
2022-10-20T03:26:50.367Z,96.41
2022-10-20T03:29:19.062Z,96.56
2022-10-20T03:34:21.316Z,96.07
2022-10-20T03:36:50.033Z,95.90
2022-10-20T03:39:20.117Z,95.51
2022-10-20T03:41:48.837Z,95.95
2022-10-20T03:44:17.494Z,96.45
2022-10-20T03:46:46.114Z,97.34
2022-10-20T03:49:14.724Z,98.02
2022-10-20T03:51:43.570Z,98.31
2022-10-20T03:54:12.285Z,97.68
2022-10-20T03:56:42.530Z,96.51
2022-10-20T03:59:12.180Z,96.81
2022-10-20T04:01:44.355Z,96.89
2022-10-20T04:04:13.167Z,97.22
2022-10-20T04:06:41.746Z,97.54
2022-10-20T04:09:10.443Z,97.05
2022-10-20T04:11:41.239Z,96.59
2022-10-20T04:14:11.202Z,95.98
2022-10-20T04:16:39.817Z,96.96
2022-10-20T04:19:08.478Z,97.27
2022-10-20T04:21:38.129Z,97.07
2022-10-20T04:24:07.457Z,96.28
2022-10-20T04:26:36.064Z,97.58
2022-10-20T04:29:04.662Z,96.59
2022-10-20T04:31:34.628Z,97.01
2022-10-20T04:34:03.289Z,96.40
2022-10-20T04:36:31.996Z,97.04
2022-10-20T04:39:00.644Z,98.13
2022-10-20T04:41:29.234Z,97.49
2022-10-20T04:43:57.829Z,97.11
2022-10-20T04:46:26.652Z,97.43
2022-10-20T04:48:56.582Z,96.99
2022-10-20T04:51:25.250Z,97.15
2022-10-20T04:53:53.947Z,97.24
2022-10-20T04:56:23.321Z,97.96
2022-10-20T04:58:53.617Z,98.13
2022-10-20T05:01:24.037Z,99.04
2022-10-20T05:03:52.855Z,98.55
2022-10-20T05:06:25.035Z,98.29
2022-10-20T05:08:55.483Z,98.17
2022-10-20T05:11:26.038Z,97.62
2022-10-20T05:13:54.682Z,98.22
2022-10-20T05:16:23.698Z,98.28
2022-10-20T05:18:53.181Z,98.50
2022-10-20T05:21:25.173Z,97.61
2022-10-20T05:23:57.434Z,98.88
2022-10-20T05:26:28.170Z,98.73
2022-10-20T05:28:56.928Z,98.24
2022-10-20T05:31:25.556Z,97.01
2022-10-20T05:33:56.113Z,97.63
2022-10-20T05:36:27.315Z,97.36
2022-10-20T05:38:56.807Z,96.72
2022-10-20T05:41:26.769Z,96.82
2022-10-20T05:43:57.706Z,97.06
2022-10-20T05:46:27.339Z,97.75
2022-10-20T05:48:58.034Z,97.81
2022-10-20T05:51:29.632Z,98.49
2022-10-20T05:53:59.053Z,99.09
2022-10-20T05:56:28.771Z,99.76
2022-10-20T05:58:58.080Z,99.32
2022-10-20T06:01:28.688Z,99.69
2022-10-20T06:03:58.990Z,99.99
2022-10-20T06:06:31.050Z,100.00
2022-10-20T06:09:01.359Z,99.27
2022-10-20T06:11:30.040Z,99.02
2022-10-20T06:13:58.692Z,99.12
2022-10-20T06:16:27.976Z,99.24
2022-10-20T06:18:58.990Z,98.84
2022-10-20T06:21:30.605Z,98.10
2022-10-20T06:23:59.792Z,98.89
2022-10-20T06:26:32.911Z,98.12
2022-10-20T06:29:04.627Z,98.39
2022-10-20T06:31:35.586Z,98.42
2022-10-20T06:34:06.177Z,98.43
2022-10-20T06:36:37.043Z,98.34
2022-10-20T06:39:07.580Z,98.59
2022-10-20T06:41:36.673Z,98.07
2022-10-20T06:44:05.507Z,98.86
2022-10-20T06:46:37.184Z,98.69
2022-10-20T06:49:07.705Z,99.08
2022-10-20T06:51:37.697Z,98.47
2022-10-20T06:54:06.506Z,98.28
2022-10-20T06:56:36.427Z,98.36
2022-10-20T06:59:05.484Z,97.57
2022-10-20T07:01:36.714Z,96.92
2022-10-20T07:04:07.329Z,96.43
2022-10-20T07:06:39.787Z,96.52
2022-10-20T07:09:12.662Z,96.39
2022-10-20T07:11:41.970Z,96.72
2022-10-20T07:14:11.778Z,96.77
2022-10-20T07:16:40.738Z,96.63
2022-10-20T07:19:09.431Z,95.63
2022-10-20T07:21:41.721Z,95.86
2022-10-20T07:24:16.425Z,95.75
2022-10-20T07:26:45.092Z,95.22
2022-10-20T07:29:15.559Z,95.65
2022-10-20T07:31:45.607Z,96.62
2022-10-20T07:34:31.492Z,96.70
2022-10-20T07:37:01.607Z,96.98
2022-10-20T07:39:30.276Z,95.58
2022-10-20T07:41:58.933Z,95.27
2022-10-20T07:44:27.584Z,95.24
2022-10-20T07:46:56.235Z,95.82
2022-10-20T07:49:43.473Z,95.38
2022-10-20T07:52:16.409Z,96.22
2022-10-20T07:54:45.515Z,95.56
2022-10-20T07:57:14.242Z,94.17
2022-10-20T07:59:43.081Z,94.17
2022-10-20T08:02:13.516Z,94.54
2022-10-20T08:04:44.096Z,93.77
2022-10-20T08:07:15.200Z,92.50
2022-10-20T08:12:17.501Z,93.38
2022-10-20T08:14:48.802Z,92.92
2022-10-20T08:17:17.498Z,92.20
2022-10-20T08:19:56.172Z,91.25
2022-10-20T08:22:26.196Z,91.64
2022-10-20T08:24:55.123Z,92.53
2022-10-20T08:27:23.790Z,90.69
2022-10-20T08:30:00.158Z,89.13
2022-10-20T08:32:35.295Z,88.78
2022-10-20T08:35:04.175Z,87.89
2022-10-20T08:37:36.540Z,88.36
2022-10-20T08:40:06.171Z,87.10
2022-10-20T08:42:38.448Z,85.89
2022-10-20T08:45:08.189Z,86.68
2022-10-20T08:47:38.061Z,86.29
2022-10-20T08:50:09.865Z,86.65
2022-10-20T08:52:41.375Z,86.28
2022-10-20T08:55:14.430Z,84.10
2022-10-20T08:57:43.164Z,83.25
2022-10-20T09:00:18.416Z,82.93
2022-10-20T09:02:48.122Z,82.79
2022-10-20T09:05:19.282Z,82.80
2022-10-20T09:07:50.063Z,83.35
2022-10-20T09:10:26.822Z,83.58
2022-10-20T09:12:55.846Z,84.26
2022-10-20T09:15:26.505Z,84.00
2022-10-20T09:17:57.697Z,83.48
2022-10-20T09:20:29.464Z,82.61
2022-10-20T09:23:04.167Z,81.65
2022-10-20T09:25:33.744Z,81.06
2022-10-20T09:28:02.997Z,80.82
2022-10-20T09:30:35.382Z,80.27
2022-10-20T09:33:22.024Z,81.44
2022-10-20T09:35:51.653Z,80.56
2022-10-20T09:38:24.871Z,81.60
2022-10-20T09:41:00.844Z,81.14
2022-10-20T09:43:29.670Z,80.74
2022-10-20T09:46:01.502Z,81.40
2022-10-20T09:48:32.973Z,81.49
2022-10-20T09:51:02.348Z,81.39
2022-10-20T09:53:35.012Z,81.57
2022-10-20T09:56:03.890Z,81.43
2022-10-20T09:58:34.021Z,82.19
2022-10-20T10:01:04.732Z,82.13
2022-10-20T10:03:40.193Z,82.49
2022-10-20T10:06:26.474Z,81.86
2022-10-20T10:08:57.864Z,80.10
2022-10-20T10:11:30.331Z,80.40
2022-10-20T10:13:59.054Z,79.39
2022-10-20T10:16:30.668Z,81.56
2022-10-20T10:19:01.910Z,81.08
2022-10-20T10:21:31.737Z,81.37
2022-10-20T10:24:03.347Z,80.64
2022-10-20T10:26:53.360Z,79.85
2022-10-20T10:29:26.717Z,78.18
2022-10-20T10:32:01.317Z,78.19
2022-10-20T10:34:44.972Z,79.65
2022-10-20T10:37:15.731Z,78.07
2022-10-20T10:39:45.954Z,77.51
2022-10-20T10:42:32.435Z,79.12
2022-10-20T10:45:10.991Z,79.44
2022-10-20T10:47:59.685Z,80.63
2022-10-20T10:50:32.820Z,80.22
2022-10-20T10:53:12.424Z,81.51
2022-10-20T10:55:49.758Z,81.21
2022-10-20T10:58:28.769Z,79.73
2022-10-20T11:01:06.681Z,77.85
2022-10-20T11:03:48.780Z,79.24
2022-10-20T11:06:23.003Z,78.43
2022-10-20T11:09:10.396Z,77.44
2022-10-20T11:11:47.073Z,78.24
2022-10-20T11:14:24.601Z,77.27
2022-10-20T11:17:03.033Z,78.64
2022-10-20T11:19:55.768Z,79.09
2022-10-20T11:22:30.893Z,78.46
2022-10-20T11:25:04.491Z,81.07
2022-10-20T11:27:36.881Z,79.68
2022-10-20T11:30:16.792Z,79.34
2022-10-20T11:32:50.247Z,80.20
2022-10-20T11:35:25.439Z,78.82
2022-10-20T11:37:58.350Z,77.62
2022-10-20T11:40:32.874Z,78.65
2022-10-20T11:43:10.344Z,76.66
2022-10-20T11:45:44.372Z,75.88
2022-10-20T11:48:17.923Z,76.01
2022-10-20T11:50:55.133Z,77.50
2022-10-20T11:53:34.941Z,77.17
2022-10-20T11:56:36.433Z,75.51
2022-10-20T12:00:06.383Z,75.75
2022-10-20T12:03:23.830Z,74.91
2022-10-20T12:06:20.560Z,75.48
2022-10-20T12:09:02.387Z,77.98
2022-10-20T12:11:33.038Z,77.02
2022-10-20T12:14:07.984Z,75.56
2022-10-20T12:17:14.394Z,76.95
2022-10-20T12:19:43.221Z,76.15
2022-10-20T12:22:41.295Z,77.33
2022-10-20T12:25:21.041Z,79.50
2022-10-20T12:28:30.459Z,78.75
2022-10-20T12:31:00.463Z,79.87
2022-10-20T12:33:39.615Z,80.25
2022-10-20T12:36:30.537Z,81.40
2022-10-20T12:39:17.024Z,80.05
2022-10-20T12:41:58.960Z,80.33
2022-10-20T12:44:29.733Z,82.19
2022-10-20T12:47:00.169Z,80.01
2022-10-20T12:49:33.187Z,78.41
2022-10-20T12:52:02.705Z,79.53
2022-10-20T12:54:35.709Z,77.62
2022-10-20T12:57:06.739Z,78.96
2022-10-20T12:59:40.455Z,81.12
2022-10-20T13:02:33.511Z,81.60
2022-10-20T13:05:16.012Z,83.48
2022-10-20T13:08:01.950Z,86.58
2022-10-20T13:10:32.281Z,86.18
2022-10-20T13:13:42.038Z,84.58
2022-10-20T13:16:22.035Z,83.92
2022-10-20T13:18:51.663Z,83.35
2022-10-20T13:21:31.239Z,83.58
2022-10-20T13:24:05.879Z,86.25
2022-10-20T13:26:39.478Z,85.34
2022-10-20T13:29:14.319Z,86.15
2022-10-20T13:31:47.899Z,86.30
2022-10-20T13:34:21.368Z,87.33
2022-10-20T13:37:00.631Z,86.42
2022-10-20T13:39:37.331Z,85.76
2022-10-20T13:42:15.410Z,85.88
2022-10-20T13:44:52.787Z,83.53
2022-10-20T13:47:39.144Z,82.94
2022-10-20T13:50:11.395Z,85.01
2022-10-20T13:52:42.859Z,85.13
2022-10-20T13:55:18.457Z,84.29
2022-10-20T13:57:55.490Z,86.17
2022-10-20T14:00:27.631Z,85.94
2022-10-20T14:02:59.362Z,85.29
2022-10-20T14:05:29.488Z,86.65
2022-10-20T14:08:04.589Z,88.31
2022-10-20T14:10:40.284Z,87.28
2022-10-20T14:13:10.480Z,89.56
2022-10-20T14:15:41.807Z,88.90
2022-10-20T14:18:22.992Z,91.28
2022-10-20T14:20:56.132Z,89.64
2022-10-20T14:23:27.007Z,88.19
2022-10-20T14:25:56.192Z,88.77
2022-10-20T14:28:34.174Z,89.08
2022-10-20T14:31:03.391Z,87.34
2022-10-20T14:33:34.572Z,85.36
2022-10-20T14:36:04.648Z,86.24
2022-10-20T14:38:37.902Z,87.49
2022-10-20T14:41:07.954Z,86.92
2022-10-20T14:43:39.069Z,83.54
2022-10-20T14:46:09.260Z,82.43
2022-10-20T14:48:39.786Z,82.03
2022-10-20T14:51:31.398Z,84.10
2022-10-20T14:54:26.891Z,84.66
2022-10-20T14:56:58.233Z,84.37
2022-10-20T14:59:28.660Z,84.24
2022-10-20T15:02:08.517Z,84.88
2022-10-20T15:04:38.023Z,85.45
2022-10-20T15:07:11.960Z,85.63
2022-10-20T15:09:43.764Z,86.15
2022-10-20T15:12:17.871Z,84.30
2022-10-20T15:14:49.612Z,84.45
2022-10-20T15:17:33.238Z,84.14
2022-10-20T15:20:37.343Z,84.07
2022-10-20T15:23:08.755Z,85.54
2022-10-20T15:25:43.581Z,86.28
2022-10-20T15:28:31.699Z,85.67
2022-10-20T15:31:01.566Z,86.97
2022-10-20T15:33:30.481Z,86.91
2022-10-20T15:36:00.640Z,87.65
2022-10-20T15:38:29.630Z,86.16
2022-10-20T15:43:35.030Z,86.82
2022-10-20T15:46:04.111Z,86.98
2022-10-20T15:48:32.798Z,88.64
2022-10-20T15:51:01.600Z,89.91
2022-10-20T15:53:30.219Z,92.24
2022-10-20T15:56:00.281Z,91.40
2022-10-20T15:58:29.233Z,90.51
2022-10-20T16:00:57.869Z,89.91
2022-10-20T16:03:26.490Z,89.92
2022-10-20T16:05:55.139Z,90.17
2022-10-20T16:08:23.788Z,90.72
2022-10-20T16:10:52.474Z,91.18
2022-10-20T16:13:22.507Z,92.17
2022-10-20T16:15:51.195Z,91.61
2022-10-20T16:18:19.788Z,92.07
2022-10-20T16:20:48.423Z,92.18
2022-10-20T16:23:17.149Z,91.88
2022-10-20T16:25:45.848Z,92.33
2022-10-20T16:28:14.755Z,92.96
2022-10-20T16:30:44.864Z,92.81
2022-10-20T16:33:13.533Z,93.68
2022-10-20T16:35:43.177Z,93.50
2022-10-20T16:38:12.161Z,93.65
2022-10-20T16:40:40.814Z,93.47
2022-10-20T16:43:09.558Z,92.31
2022-10-20T16:45:40.259Z,91.17
2022-10-20T16:48:10.273Z,91.25
2022-10-20T16:50:41.706Z,92.40
2022-10-20T16:53:10.409Z,93.42
2022-10-20T16:55:39.063Z,93.05
2022-10-20T16:58:07.786Z,93.26
2022-10-20T17:00:36.485Z,90.66
2022-10-20T17:03:06.398Z,90.00
2022-10-20T17:05:36.404Z,88.74
2022-10-20T17:08:05.484Z,88.63
2022-10-20T17:10:34.401Z,88.12
2022-10-20T17:13:03.095Z,88.42
2022-10-20T17:15:31.868Z,89.23
2022-10-20T17:18:00.713Z,89.45
2022-10-20T17:20:29.618Z,90.05
2022-10-20T17:23:01.897Z,90.29
2022-10-20T17:25:32.406Z,90.71
2022-10-20T17:28:01.459Z,91.58
2022-10-20T17:30:30.483Z,91.97
2022-10-20T17:32:59.349Z,92.38
2022-10-20T17:35:30.238Z,92.85
2022-10-20T17:38:04.408Z,93.48
2022-10-20T17:40:37.523Z,91.90
2022-10-20T17:43:06.391Z,91.65
2022-10-20T17:45:37.530Z,91.88
2022-10-20T17:48:09.968Z,92.41
2022-10-20T17:50:38.795Z,90.94
2022-10-20T17:53:08.850Z,92.40
2022-10-20T17:55:37.559Z,92.79
2022-10-20T17:58:06.254Z,93.07
2022-10-20T18:00:51.493Z,93.17
2022-10-20T18:03:24.826Z,92.92
2022-10-20T18:05:55.046Z,92.51
2022-10-20T18:08:25.176Z,92.63
2022-10-20T18:10:53.850Z,93.06
2022-10-20T18:13:22.523Z,91.34
2022-10-20T18:15:51.208Z,91.41
2022-10-20T18:18:19.945Z,91.41
2022-10-20T18:20:55.251Z,91.77
2022-10-20T18:23:25.274Z,93.73
2022-10-20T18:25:53.963Z,93.88
2022-10-20T18:28:23.169Z,95.11
2022-10-20T18:30:52.459Z,95.28
2022-10-20T18:33:21.130Z,95.60
2022-10-20T18:35:49.805Z,95.70
2022-10-20T18:38:18.493Z,96.06
2022-10-20T18:40:48.542Z,97.17
2022-10-20T18:43:17.237Z,97.94
2022-10-20T18:45:51.870Z,99.03
2022-10-20T18:48:20.621Z,100.00
2022-10-20T18:50:55.824Z,100.00
2022-10-20T18:53:24.886Z,100.00
2022-10-20T18:56:01.890Z,100.00
2022-10-20T18:58:31.954Z,100.00
2022-10-20T19:01:01.901Z,100.00
2022-10-20T19:03:33.227Z,100.00
2022-10-20T19:06:03.613Z,100.00
2022-10-20T19:08:32.445Z,100.00
2022-10-20T19:11:02.801Z,100.00
2022-10-20T19:13:31.735Z,100.00
2022-10-20T19:16:01.694Z,100.00
2022-10-20T19:18:31.158Z,100.00
2022-10-20T19:21:02.351Z,100.00
2022-10-20T19:23:32.425Z,100.00
2022-10-20T19:26:08.104Z,100.00
2022-10-20T19:28:39.413Z,100.00
2022-10-20T19:31:20.720Z,100.00
2022-10-20T19:33:51.687Z,100.00
2022-10-20T19:36:20.916Z,100.00
2022-10-20T19:38:49.890Z,100.00
2022-10-20T19:41:21.259Z,100.00
2022-10-20T19:43:50.449Z,100.00
2022-10-20T19:46:22.861Z,100.00
2022-10-20T19:48:52.023Z,100.00
2022-10-20T19:51:21.248Z,100.00
2022-10-20T19:53:50.333Z,100.00
2022-10-20T19:56:21.319Z,100.00
2022-10-20T19:58:50.147Z,100.00
2022-10-20T20:01:19.247Z,100.00
2022-10-20T20:03:48.266Z,100.00
2022-10-20T20:06:19.820Z,100.00
2022-10-20T20:08:50.534Z,100.00
2022-10-20T20:11:24.148Z,100.00
2022-10-20T20:13:53.164Z,100.00
2022-10-20T20:16:22.086Z,100.00
2022-10-20T20:18:50.865Z,100.00
2022-10-20T20:21:19.812Z,100.00
2022-10-20T20:24:04.394Z,100.00
2022-10-20T20:26:36.822Z,100.00
2022-10-20T20:29:06.148Z,100.00
2022-10-20T20:31:36.235Z,100.00
2022-10-20T20:34:04.970Z,100.00
2022-10-20T20:36:33.667Z,100.00
2022-10-20T20:39:02.279Z,100.00
2022-10-20T20:41:31.878Z,100.00
2022-10-20T20:44:08.013Z,100.00
2022-10-20T20:46:37.451Z,100.00
2022-10-20T20:49:06.454Z,100.00
2022-10-20T20:51:37.276Z,100.00
2022-10-20T20:54:06.166Z,100.00
2022-10-20T20:56:34.836Z,100.00
2022-10-20T20:59:04.882Z,100.00
2022-10-20T21:01:33.901Z,100.00
2022-10-20T21:04:04.585Z,100.00
2022-10-20T21:06:56.613Z,100.00
2022-10-20T21:09:22.632Z,100.00
2022-10-20T21:11:51.347Z,100.00
2022-10-20T21:14:21.901Z,100.00
2022-10-20T21:16:50.611Z,100.00
2022-10-20T21:19:20.124Z,100.00
2022-10-20T21:21:51.179Z,100.00
2022-10-20T21:24:19.907Z,100.00
2022-10-20T21:26:48.812Z,100.00
2022-10-20T21:29:17.683Z,100.00
2022-10-20T21:31:48.000Z,100.00
2022-10-20T21:34:16.791Z,100.00
2022-10-20T21:36:45.916Z,100.00
2022-10-20T21:39:16.536Z,100.00
2022-10-20T21:41:46.016Z,100.00
2022-10-20T21:44:15.510Z,100.00
2022-10-20T21:46:47.716Z,100.00
2022-10-20T21:49:19.398Z,100.00
2022-10-20T21:51:50.600Z,100.00
2022-10-20T21:56:51.196Z,100.00
2022-10-20T21:59:21.489Z,100.00
2022-10-20T22:01:50.319Z,100.00
2022-10-20T22:04:22.521Z,100.00
2022-10-20T22:06:51.204Z,100.00
2022-10-20T22:09:20.980Z,100.00
2022-10-20T22:11:51.807Z,100.00
2022-10-20T22:14:20.439Z,100.00
2022-10-20T22:16:49.568Z,100.00
2022-10-20T22:19:21.166Z,100.00
2022-10-20T22:21:51.138Z,100.00
2022-10-20T22:24:20.665Z,100.00
2022-10-20T22:26:50.748Z,100.00
2022-10-20T22:29:20.417Z,100.00
2022-10-20T22:31:49.588Z,100.00
2022-10-20T22:34:20.122Z,100.00
2022-10-20T22:36:48.768Z,100.00
2022-10-20T22:39:17.401Z,100.00
2022-10-20T22:41:46.022Z,100.00
2022-10-20T22:44:14.987Z,100.00
2022-10-20T22:46:43.642Z,100.00
2022-10-20T22:49:13.028Z,100.00
2022-10-20T22:51:43.176Z,100.00
2022-10-20T22:54:12.114Z,100.00
2022-10-20T22:56:41.046Z,100.00
2022-10-20T22:59:09.665Z,100.00
2022-10-20T23:01:38.427Z,100.00
2022-10-20T23:04:07.239Z,100.00
2022-10-20T23:06:35.891Z,100.00
2022-10-20T23:09:06.002Z,100.00
2022-10-20T23:11:35.060Z,100.00
2022-10-20T23:14:03.943Z,100.00
2022-10-20T23:16:32.530Z,100.00
2022-10-20T23:19:03.317Z,100.00
2022-10-20T23:21:33.445Z,100.00
2022-10-20T23:24:02.040Z,100.00
2022-10-20T23:26:32.010Z,100.00
2022-10-20T23:29:00.637Z,100.00
2022-10-20T23:31:30.244Z,100.00
2022-10-20T23:33:59.418Z,100.00
2022-10-20T23:36:28.062Z,100.00
2022-10-20T23:38:56.630Z,100.00
2022-10-20T23:41:27.929Z,100.00
2022-10-20T23:43:57.990Z,100.00
2022-10-20T23:46:31.668Z,100.00
2022-10-20T23:49:00.530Z,100.00
2022-10-20T23:51:29.481Z,100.00
2022-10-20T23:53:58.162Z,100.00
2022-10-20T23:56:26.955Z,100.00
2022-10-20T23:58:55.664Z,100.00
